createdAt,value
2022-10-22T00:00:01.599Z,22.65
2022-10-22T00:02:28.245Z,23.63
2022-10-22T00:04:56.964Z,21.67
2022-10-22T00:09:52.437Z,20.77
2022-10-22T00:12:19.348Z,22.75
2022-10-22T00:14:46.052Z,21.95
2022-10-22T00:17:13.032Z,21.20
2022-10-22T00:19:40.028Z,22.83
2022-10-22T00:22:08.513Z,21.80
2022-10-22T00:24:37.139Z,21.95
2022-10-22T00:27:04.291Z,23.90
2022-10-22T00:29:31.491Z,24.02
2022-10-22T00:31:58.574Z,23.52
2022-10-22T00:34:26.776Z,25.50
2022-10-22T00:36:53.695Z,25.35
2022-10-22T00:39:22.572Z,22.40
2022-10-22T00:41:51.672Z,23.33
2022-10-22T00:44:55.952Z,22.38
2022-10-22T00:47:24.315Z,20.80
2022-10-22T00:49:53.761Z,19.75
2022-10-22T00:52:21.361Z,21.02
2022-10-22T00:54:48.070Z,21.38
2022-10-22T00:57:16.769Z,21.58
2022-10-22T00:59:43.422Z,22.48
2022-10-22T01:02:09.992Z,23.67
2022-10-22T01:04:36.581Z,24.98
2022-10-22T01:07:03.657Z,23.35
2022-10-22T01:09:30.079Z,20.65
2022-10-22T01:12:02.535Z,23.40
2022-10-22T01:14:45.584Z,23.42
2022-10-22T01:17:24.965Z,23.48
2022-10-22T01:19:51.677Z,24.48
2022-10-22T01:22:37.889Z,24.67
2022-10-22T01:25:32.748Z,23.83
2022-10-22T01:30:19.346Z,30.42
2022-10-22T01:32:56.849Z,31.80
2022-10-22T01:35:28.716Z,32.90
2022-10-22T01:38:01.920Z,46.30
2022-10-22T01:40:29.507Z,49.97
2022-10-22T01:43:01.515Z,47.17
2022-10-22T01:48:13.366Z,43.83
2022-10-22T01:50:45.917Z,48.70
2022-10-22T01:53:41.743Z,47.35
2022-10-22T01:56:54.495Z,48.53
2022-10-22T01:59:58.967Z,46.35
2022-10-22T02:02:56.393Z,44.58
2022-10-22T02:05:43.347Z,43.10
2022-10-22T02:08:15.908Z,40.20
2022-10-22T02:10:44.768Z,37.58
2022-10-22T02:13:19.409Z,35.15
2022-10-22T02:15:48.983Z,32.75
2022-10-22T02:18:18.085Z,26.08
2022-10-22T02:20:44.688Z,30.15
2022-10-22T02:23:12.013Z,28.60
2022-10-22T02:25:41.780Z,27.20
2022-10-22T02:28:35.233Z,27.42
2022-10-22T02:31:11.251Z,28.80
2022-10-22T02:33:47.275Z,29.45
2022-10-22T02:36:15.854Z,29.10
2022-10-22T02:38:43.157Z,26.02
2022-10-22T02:41:10.194Z,27.80
2022-10-22T02:43:49.921Z,27.85
2022-10-22T02:46:16.789Z,29.42
2022-10-22T02:48:43.272Z,29.65
2022-10-22T02:51:09.805Z,29.77
2022-10-22T02:53:36.362Z,29.15
2022-10-22T02:56:02.987Z,28.50
2022-10-22T02:58:29.471Z,27.40
2022-10-22T03:00:56.121Z,29.58
2022-10-22T03:03:22.745Z,30.85
2022-10-22T03:05:50.959Z,29.65
2022-10-22T03:08:17.702Z,30.92
2022-10-22T03:10:44.357Z,37.35
2022-10-22T03:13:10.891Z,36.58
2022-10-22T03:15:37.761Z,35.97
2022-10-22T03:18:04.267Z,49.80
2022-10-22T03:20:30.786Z,53.53
2022-10-22T03:22:57.696Z,46.47
2022-10-22T03:25:27.133Z,40.78
2022-10-22T03:28:01.348Z,39.20
2022-10-22T03:32:54.384Z,40.13
2022-10-22T03:35:21.152Z,41.40
2022-10-22T03:37:47.826Z,45.08
2022-10-22T03:40:14.751Z,38.42
2022-10-22T03:42:42.111Z,38.67
2022-10-22T03:45:09.244Z,37.58
2022-10-22T03:47:37.344Z,37.65
2022-10-22T03:50:06.264Z,36.60
2022-10-22T03:52:37.729Z,37.38
2022-10-22T03:55:05.781Z,37.53
2022-10-22T03:57:32.408Z,35.63
2022-10-22T04:02:15.520Z,42.67
2022-10-22T04:04:42.127Z,39.88
2022-10-22T04:07:08.833Z,42.22
2022-10-22T04:09:35.654Z,37.70
2022-10-22T04:12:02.389Z,42.45
2022-10-22T04:14:28.945Z,40.15
2022-10-22T04:16:55.500Z,39.17
2022-10-22T04:19:22.123Z,38.00
2022-10-22T04:21:48.767Z,38.33
2022-10-22T04:24:15.484Z,36.65
2022-10-22T04:26:42.439Z,37.72
2022-10-22T04:29:11.987Z,38.65
2022-10-22T04:31:41.861Z,37.28
2022-10-22T04:34:08.406Z,35.13
2022-10-22T04:36:34.962Z,34.38
2022-10-22T04:39:02.040Z,37.15
2022-10-22T04:41:31.890Z,33.50
2022-10-22T04:43:59.314Z,36.67
2022-10-22T04:46:28.422Z,34.47
2022-10-22T04:48:55.035Z,35.50
2022-10-22T04:51:24.222Z,34.55
2022-10-22T04:53:51.061Z,32.45
2022-10-22T04:56:23.011Z,34.25
2022-10-22T04:58:51.681Z,35.38
2022-10-22T05:01:27.012Z,33.75
2022-10-22T05:03:55.792Z,37.88
2022-10-22T05:06:23.278Z,38.17
2022-10-22T05:08:55.757Z,40.17
2022-10-22T05:11:34.885Z,38.10
2022-10-22T05:14:04.424Z,37.42
2022-10-22T05:16:32.748Z,37.40
2022-10-22T05:19:00.841Z,37.38
2022-10-22T05:21:28.285Z,37.45
2022-10-22T05:23:56.074Z,37.35
2022-10-22T05:26:24.977Z,39.88
2022-10-22T05:28:52.276Z,37.22
2022-10-22T05:31:19.443Z,35.42
2022-10-22T05:33:46.765Z,36.35
2022-10-22T05:36:19.493Z,34.88
2022-10-22T05:38:46.075Z,38.42
2022-10-22T05:41:17.651Z,42.13
2022-10-22T05:43:45.134Z,42.25
2022-10-22T05:46:22.191Z,43.88
2022-10-22T05:48:54.657Z,43.17
2022-10-22T05:51:22.696Z,53.72
2022-10-22T05:53:53.409Z,58.50
2022-10-22T05:56:20.895Z,58.45
2022-10-22T05:58:47.706Z,57.97
2022-10-22T06:01:23.783Z,57.38
2022-10-22T06:03:54.115Z,56.95
2022-10-22T06:06:22.290Z,60.05
2022-10-22T06:08:51.088Z,55.70
2022-10-22T06:11:19.857Z,57.35
2022-10-22T06:13:47.172Z,58.03
2022-10-22T06:16:14.689Z,59.90
2022-10-22T06:18:41.269Z,62.45
2022-10-22T06:21:13.509Z,63.72
2022-10-22T06:26:07.915Z,63.45
2022-10-22T06:28:35.198Z,63.00
2022-10-22T06:31:02.620Z,60.97
2022-10-22T06:33:31.197Z,62.45
2022-10-22T06:36:07.590Z,73.35
2022-10-22T06:38:35.067Z,69.75
2022-10-22T06:41:06.479Z,80.10
2022-10-22T06:43:33.056Z,100.00
2022-10-22T06:46:05.221Z,77.03
2022-10-22T06:51:02.816Z,67.45
2022-10-22T06:53:30.224Z,59.13
2022-10-22T06:55:57.331Z,59.78
2022-10-22T06:58:23.936Z,54.45
2022-10-22T07:00:50.452Z,50.47
2022-10-22T07:03:17.076Z,48.40
2022-10-22T07:05:43.556Z,46.03
2022-10-22T07:08:10.250Z,48.72
2022-10-22T07:10:36.812Z,46.67
2022-10-22T07:13:03.344Z,46.33
2022-10-22T07:15:29.852Z,46.55
2022-10-22T07:17:56.588Z,43.42
2022-10-22T07:20:23.088Z,45.05
2022-10-22T07:22:49.694Z,41.83
2022-10-22T07:25:16.339Z,41.80
2022-10-22T07:27:43.247Z,46.47
2022-10-22T07:30:10.184Z,42.78
2022-10-22T07:32:37.174Z,44.67
2022-10-22T07:35:04.585Z,39.80
2022-10-22T07:37:31.210Z,40.97
2022-10-22T07:40:01.332Z,40.45
2022-10-22T07:45:00.941Z,39.63
2022-10-22T07:47:27.432Z,46.15
2022-10-22T07:49:53.968Z,38.65
2022-10-22T07:52:20.593Z,36.75
2022-10-22T07:54:47.184Z,38.75
2022-10-22T07:57:13.668Z,43.50
2022-10-22T07:59:40.224Z,41.63
2022-10-22T08:02:07.133Z,44.70
2022-10-22T08:04:33.714Z,43.25
2022-10-22T08:07:00.939Z,38.15
2022-10-22T08:09:27.593Z,38.95
2022-10-22T08:11:54.701Z,38.25
2022-10-22T08:14:21.369Z,35.28
2022-10-22T08:16:47.975Z,36.67
2022-10-22T08:19:18.713Z,35.75
2022-10-22T08:21:46.111Z,35.22
2022-10-22T08:24:13.554Z,34.78
2022-10-22T08:26:40.736Z,32.97
2022-10-22T08:29:07.768Z,34.03
2022-10-22T08:31:34.859Z,34.25
2022-10-22T08:34:01.462Z,29.77
2022-10-22T08:36:28.172Z,34.08
2022-10-22T08:38:54.774Z,32.85
2022-10-22T08:41:23.418Z,27.67
2022-10-22T08:44:08.720Z,30.30
2022-10-22T08:46:52.486Z,31.20
2022-10-22T08:49:24.617Z,30.48
2022-10-22T08:51:51.525Z,32.15
2022-10-22T08:54:46.065Z,30.70
2022-10-22T08:57:52.201Z,32.72
2022-10-22T09:00:23.148Z,33.67
2022-10-22T09:02:52.520Z,35.05
2022-10-22T09:05:37.825Z,31.85
2022-10-22T09:08:08.650Z,35.10
2022-10-22T09:10:38.257Z,37.10
2022-10-22T09:13:04.879Z,37.55
2022-10-22T09:15:31.624Z,37.95
2022-10-22T09:18:23.303Z,35.70
2022-10-22T09:20:56.426Z,36.20
2022-10-22T09:23:28.815Z,35.35
2022-10-22T09:25:57.801Z,58.42
2022-10-22T09:28:24.409Z,36.35
2022-10-22T09:30:51.473Z,36.00
2022-10-22T09:33:27.037Z,58.72
2022-10-22T09:35:58.085Z,37.83
2022-10-22T09:38:41.296Z,43.88
2022-10-22T09:41:09.220Z,39.20
2022-10-22T09:43:36.136Z,41.28
2022-10-22T09:46:06.364Z,31.42
2022-10-22T09:48:40.116Z,32.55
2022-10-22T09:51:06.639Z,30.67
2022-10-22T09:53:41.561Z,28.95
2022-10-22T09:56:23.953Z,27.52
2022-10-22T10:01:23.804Z,58.35
2022-10-22T10:03:50.407Z,30.00
2022-10-22T10:06:22.446Z,30.73
2022-10-22T10:11:34.232Z,26.27
2022-10-22T10:14:54.574Z,29.60
2022-10-22T10:17:41.465Z,25.30
2022-10-22T10:20:15.882Z,23.45
2022-10-22T10:23:01.168Z,24.30
2022-10-22T10:26:01.143Z,23.98
2022-10-22T10:28:30.392Z,24.70
2022-10-22T10:30:59.870Z,24.00
2022-10-22T10:33:35.369Z,23.98
2022-10-22T10:36:12.836Z,33.78
2022-10-22T10:38:53.665Z,27.52
2022-10-22T10:41:29.792Z,24.48
2022-10-22T10:44:05.624Z,20.25
2022-10-22T10:46:56.676Z,20.20
2022-10-22T10:49:26.334Z,22.77
2022-10-22T10:52:18.966Z,30.05
2022-10-22T10:55:45.819Z,34.60
2022-10-22T10:58:30.212Z,26.63
2022-10-22T11:01:03.788Z,30.65
2022-10-22T11:03:48.714Z,21.45
2022-10-22T11:06:23.010Z,20.92
2022-10-22T11:09:03.061Z,26.40
2022-10-22T11:11:29.669Z,24.75
2022-10-22T11:14:27.909Z,23.15
2022-10-22T11:17:15.962Z,29.98
2022-10-22T11:19:53.784Z,33.58
2022-10-22T11:23:18.025Z,37.40
2022-10-22T11:25:47.741Z,68.53
2022-10-22T11:28:21.142Z,63.72
2022-10-22T11:30:56.462Z,257.80
2022-10-22T11:33:28.753Z,177.52
2022-10-22T11:35:58.646Z,53.13
2022-10-22T11:38:26.437Z,36.53
2022-10-22T11:41:02.469Z,28.83
2022-10-22T11:43:32.801Z,35.40
2022-10-22T11:46:24.611Z,29.67
2022-10-22T11:49:17.069Z,26.70
2022-10-22T11:54:42.680Z,29.45
2022-10-22T11:57:15.125Z,33.05
2022-10-22T11:59:49.686Z,54.30
2022-10-22T12:02:28.221Z,103.90
2022-10-22T12:05:22.324Z,43.28
2022-10-22T12:08:14.853Z,38.47
2022-10-22T12:11:10.559Z,49.78
2022-10-22T12:13:58.621Z,55.42
2022-10-22T12:16:37.760Z,38.92
2022-10-22T12:19:24.380Z,39.05
2022-10-22T12:22:19.360Z,38.08
2022-10-22T12:24:49.494Z,37.78
2022-10-22T12:27:28.252Z,33.45
2022-10-22T12:29:59.377Z,32.38
2022-10-22T12:32:37.690Z,39.97
2022-10-22T12:35:11.673Z,45.85
2022-10-22T12:37:38.683Z,35.97
2022-10-22T12:40:24.116Z,35.05
2022-10-22T12:43:12.418Z,38.47
2022-10-22T12:45:40.016Z,45.38
2022-10-22T12:48:14.301Z,53.20
2022-10-22T12:50:43.771Z,40.20
2022-10-22T12:53:29.661Z,57.60
2022-10-22T12:56:01.268Z,44.28
2022-10-22T12:58:33.323Z,44.00
2022-10-22T13:03:33.524Z,51.00
2022-10-22T13:06:34.598Z,51.20
2022-10-22T13:09:04.023Z,54.15
2022-10-22T13:11:48.206Z,63.53
2022-10-22T13:14:18.177Z,60.78
2022-10-22T13:17:08.404Z,66.50
2022-10-22T13:19:55.272Z,61.10
2022-10-22T13:22:29.764Z,59.05
2022-10-22T13:24:58.958Z,112.10
2022-10-22T13:27:28.220Z,107.82
2022-10-22T13:29:56.477Z,109.45
2022-10-22T13:32:30.590Z,108.78
2022-10-22T13:35:00.761Z,82.78
2022-10-22T13:37:30.723Z,73.10
2022-10-22T13:39:57.300Z,66.53
2022-10-22T13:42:23.877Z,59.22
2022-10-22T13:44:50.730Z,60.58
2022-10-22T13:47:24.003Z,56.72
2022-10-22T13:49:50.850Z,55.13
2022-10-22T13:52:44.427Z,60.40
2022-10-22T13:55:30.665Z,55.53
2022-10-22T13:58:11.145Z,53.78
2022-10-22T14:00:39.722Z,53.05
2022-10-22T14:03:11.153Z,56.47
2022-10-22T14:05:37.935Z,59.05
2022-10-22T14:08:11.897Z,54.28
2022-10-22T14:10:38.949Z,57.75
2022-10-22T14:13:07.812Z,61.13
2022-10-22T14:15:34.691Z,63.45
2022-10-22T14:18:01.578Z,68.72
2022-10-22T14:20:30.544Z,73.70
2022-10-22T14:23:11.177Z,62.92
2022-10-22T14:25:37.757Z,82.50
2022-10-22T14:28:04.388Z,86.78
2022-10-22T14:30:32.805Z,87.03
2022-10-22T14:32:59.384Z,89.30
2022-10-22T14:35:26.139Z,97.03
2022-10-22T14:37:52.768Z,100.22
2022-10-22T14:40:20.854Z,105.70
2022-10-22T14:42:48.837Z,101.70
2022-10-22T14:45:23.016Z,98.57
2022-10-22T14:47:51.161Z,95.32
2022-10-22T14:50:18.745Z,92.65
2022-10-22T14:52:45.553Z,80.93
2022-10-22T14:55:14.532Z,69.28
2022-10-22T14:57:41.500Z,55.38
2022-10-22T15:00:18.761Z,50.20
2022-10-22T15:02:48.328Z,53.17
2022-10-22T15:05:15.795Z,50.50
2022-10-22T15:07:42.681Z,53.30
2022-10-22T15:10:09.980Z,63.83
2022-10-22T15:12:36.771Z,69.25
2022-10-22T15:15:04.100Z,73.75
2022-10-22T15:17:31.004Z,105.22
2022-10-22T15:20:00.472Z,58.65
2022-10-22T15:22:28.502Z,64.68
2022-10-22T15:24:55.119Z,121.85
2022-10-22T15:27:21.674Z,108.55
2022-10-22T15:29:48.244Z,122.32
2022-10-22T15:32:14.921Z,112.40
2022-10-22T15:34:41.395Z,108.15
2022-10-22T15:37:11.361Z,118.72
2022-10-22T15:39:42.247Z,90.75
2022-10-22T15:42:09.820Z,87.82
2022-10-22T15:44:36.692Z,98.45
2022-10-22T15:47:04.910Z,94.28
2022-10-22T15:49:33.486Z,106.28
2022-10-22T15:52:00.140Z,73.40
2022-10-22T15:54:28.610Z,87.45
2022-10-22T15:56:56.532Z,82.72
2022-10-22T15:59:23.105Z,69.50
2022-10-22T16:01:50.161Z,73.20
2022-10-22T16:04:17.164Z,75.60
2022-10-22T16:06:47.310Z,76.40
2022-10-22T16:09:17.185Z,68.50
2022-10-22T16:11:44.925Z,65.03
2022-10-22T16:14:12.827Z,64.53
2022-10-22T16:16:43.375Z,64.70
2022-10-22T16:19:12.768Z,67.53
2022-10-22T16:21:39.794Z,72.40
2022-10-22T16:24:07.871Z,62.05
2022-10-22T16:26:35.738Z,65.50
2022-10-22T16:29:02.840Z,66.13
2022-10-22T16:31:29.336Z,68.50
2022-10-22T16:33:56.219Z,70.40
2022-10-22T16:36:22.804Z,68.80
2022-10-22T16:38:49.696Z,66.45
2022-10-22T16:41:17.897Z,66.03
2022-10-22T16:43:48.324Z,70.22
2022-10-22T16:46:20.058Z,66.15
2022-10-22T16:48:50.817Z,66.20
2022-10-22T16:51:21.107Z,68.47
2022-10-22T16:53:48.045Z,63.97
2022-10-22T16:56:16.238Z,65.93
2022-10-22T16:58:50.888Z,60.90
2022-10-22T17:01:19.488Z,61.10
2022-10-22T17:03:46.563Z,68.57
2022-10-22T17:06:14.200Z,68.43
2022-10-22T17:08:41.834Z,69.93
2022-10-22T17:11:17.183Z,65.07
2022-10-22T17:13:45.910Z,66.32
2022-10-22T17:16:15.497Z,61.72
2022-10-22T17:21:17.447Z,61.42
2022-10-22T17:23:44.324Z,60.47
2022-10-22T17:26:20.925Z,62.53
2022-10-22T17:28:49.013Z,58.85
2022-10-22T17:31:16.003Z,58.67
2022-10-22T17:33:43.208Z,61.60
2022-10-22T17:36:12.665Z,58.47
2022-10-22T17:38:40.969Z,55.30
2022-10-22T17:41:13.807Z,61.30
2022-10-22T17:43:41.484Z,61.72
2022-10-22T17:46:11.185Z,62.72
2022-10-22T17:48:37.821Z,59.15
2022-10-22T17:51:11.687Z,56.03
2022-10-22T17:53:46.019Z,54.38
2022-10-22T17:56:17.376Z,54.55
2022-10-22T17:58:44.272Z,56.78
2022-10-22T18:01:21.841Z,54.60
2022-10-22T18:03:49.115Z,53.10
2022-10-22T18:06:15.679Z,55.78
2022-10-22T18:08:42.455Z,56.30
2022-10-22T18:11:11.209Z,57.08
2022-10-22T18:13:38.232Z,59.00
2022-10-22T18:16:05.925Z,57.03
2022-10-22T18:18:34.707Z,61.58
2022-10-22T18:21:01.790Z,58.63
2022-10-22T18:23:28.652Z,58.75
2022-10-22T18:25:55.800Z,54.97
2022-10-22T18:28:22.535Z,55.58
2022-10-22T18:30:49.248Z,53.03
2022-10-22T18:33:17.980Z,52.53
2022-10-22T18:35:46.416Z,52.53
2022-10-22T18:38:13.427Z,53.35
2022-10-22T18:40:46.816Z,57.30
2022-10-22T18:43:13.680Z,55.35
2022-10-22T18:45:44.495Z,54.60
2022-10-22T18:48:14.459Z,53.70
2022-10-22T18:50:41.587Z,48.00
2022-10-22T18:53:08.796Z,48.45
2022-10-22T18:55:39.654Z,51.47
2022-10-22T18:58:06.945Z,49.20
2022-10-22T19:00:35.525Z,44.60
2022-10-22T19:03:03.288Z,44.50
2022-10-22T19:05:29.975Z,46.78
2022-10-22T19:07:56.670Z,46.00
2022-10-22T19:12:35.373Z,44.38
2022-10-22T19:15:01.988Z,44.78
2022-10-22T19:17:28.509Z,48.70
2022-10-22T19:19:55.052Z,46.67
2022-10-22T19:22:21.609Z,50.22
2022-10-22T19:24:49.840Z,45.47
2022-10-22T19:27:17.195Z,45.80
2022-10-22T19:29:44.966Z,40.97
2022-10-22T19:32:14.364Z,47.92
2022-10-22T19:34:41.206Z,49.35
2022-10-22T19:37:08.031Z,51.55
2022-10-22T19:39:34.926Z,54.08
2022-10-22T19:42:01.662Z,55.25
2022-10-22T19:44:28.309Z,54.50
2022-10-22T19:46:54.941Z,59.70
2022-10-22T19:49:23.003Z,58.00
2022-10-22T19:51:49.937Z,60.95
2022-10-22T19:54:18.703Z,58.70
2022-10-22T19:56:46.712Z,58.72
2022-10-22T19:59:14.802Z,61.58
2022-10-22T20:01:42.396Z,59.22
2022-10-22T20:04:16.303Z,61.85
2022-10-22T20:06:43.524Z,63.85
2022-10-22T20:09:11.119Z,65.45
2022-10-22T20:11:41.401Z,67.15
2022-10-22T20:14:07.897Z,61.30
2022-10-22T20:16:36.022Z,69.05
2022-10-22T20:19:05.539Z,67.60
2022-10-22T20:21:33.360Z,60.25
2022-10-22T20:24:00.211Z,66.93
2022-10-22T20:26:28.530Z,69.57
2022-10-22T20:28:56.389Z,63.80
2022-10-22T20:31:26.963Z,66.78
2022-10-22T20:33:56.774Z,66.63
2022-10-22T20:36:24.192Z,61.72
2022-10-22T20:38:51.869Z,60.33
2022-10-22T20:41:23.131Z,61.20
2022-10-22T20:43:51.265Z,64.63
2022-10-22T20:46:20.780Z,64.00
2022-10-22T20:48:51.138Z,65.55
2022-10-22T20:51:17.824Z,62.38
2022-10-22T20:53:44.342Z,68.10
2022-10-22T20:56:11.547Z,67.65
2022-10-22T20:58:38.824Z,71.60
2022-10-22T21:01:10.460Z,73.55
2022-10-22T21:03:37.842Z,71.03
2022-10-22T21:06:05.840Z,71.88
2022-10-22T21:08:32.705Z,66.10
2022-10-22T21:10:59.299Z,67.97
2022-10-22T21:13:25.968Z,62.13
2022-10-22T21:15:52.471Z,73.43
2022-10-22T21:18:19.094Z,65.07
2022-10-22T21:20:45.571Z,67.05
2022-10-22T21:23:15.128Z,63.85
2022-10-22T21:25:43.383Z,67.22
2022-10-22T21:28:10.942Z,62.92
2022-10-22T21:30:44.642Z,57.63
2022-10-22T21:33:12.468Z,62.85
2022-10-22T21:35:39.060Z,59.03
2022-10-22T21:38:07.783Z,67.00
2022-10-22T21:40:37.370Z,65.13
2022-10-22T21:43:03.976Z,67.57
2022-10-22T21:50:18.617Z,62.58
2022-10-22T21:52:45.221Z,63.38
2022-10-22T21:55:11.701Z,62.63
2022-10-22T21:57:38.232Z,61.33
2022-10-22T22:00:07.374Z,61.00
2022-10-22T22:02:34.317Z,65.97
2022-10-22T22:05:00.853Z,66.43
2022-10-22T22:07:27.453Z,62.22
2022-10-22T22:09:53.977Z,69.47
2022-10-22T22:12:21.170Z,66.95
2022-10-22T22:14:47.833Z,64.47
2022-10-22T22:17:16.405Z,67.38
2022-10-22T22:19:42.944Z,62.85
2022-10-22T22:22:09.561Z,66.40
2022-10-22T22:24:37.624Z,68.70
2022-10-22T22:27:04.337Z,69.55
2022-10-22T22:29:30.823Z,68.03
2022-10-22T22:31:57.461Z,69.70
2022-10-22T22:34:23.992Z,66.95
2022-10-22T22:36:50.594Z,65.28
2022-10-22T22:39:21.257Z,70.00
2022-10-22T22:41:47.987Z,72.55
2022-10-22T22:44:15.459Z,73.90
2022-10-22T22:46:42.487Z,76.28
2022-10-22T22:49:09.538Z,67.70
2022-10-22T22:51:36.261Z,70.68
2022-10-22T22:54:02.879Z,69.63
2022-10-22T22:56:31.723Z,67.47
2022-10-22T22:58:58.564Z,68.63
2022-10-22T23:01:37.379Z,66.82
2022-10-22T23:04:11.652Z,68.97
2022-10-22T23:06:39.502Z,66.88
2022-10-22T23:09:09.318Z,66.03
2022-10-22T23:11:36.361Z,65.28
2022-10-22T23:14:04.935Z,61.47
2022-10-22T23:16:33.924Z,60.67
2022-10-22T23:19:01.166Z,60.30
2022-10-22T23:21:32.902Z,66.43
2022-10-22T23:24:01.981Z,62.20
2022-10-22T23:26:31.753Z,63.60
2022-10-22T23:29:02.865Z,61.20
2022-10-22T23:31:29.847Z,60.95
2022-10-22T23:33:56.408Z,57.35
2022-10-22T23:36:23.161Z,61.63
2022-10-22T23:38:50.287Z,58.83
2022-10-22T23:41:17.471Z,58.78
2022-10-22T23:43:44.049Z,59.45
2022-10-22T23:46:12.862Z,58.20
2022-10-22T23:48:40.173Z,56.97
2022-10-22T23:51:12.252Z,58.15
2022-10-22T23:56:11.117Z,59.17
2022-10-22T23:58:39.550Z,60.92
